»·PEaware :: N2548T KDMN-KTUS

N2548T :: KDMN-KTUS

FLIGHT INFORMATION

Flight Status: Arrived
Operator: Privately registered:
United States
More flights under this callsign
Pilot: Edward K. (32197)
Aircraft: CESSNA 172 SKYHAWK
(C172)
More flights by this aircraft type
Origin: KDMN Deming Mun
United States
Destination: KTUS Tucson Intl
United States
More flights between these airports :: More routes between these airports
Route: +
File this flight plan on PilotEdge
Remarks:
Altitude:
(Current/Filed)
7,000ft
Speed:
(Current/Filed)
115kts
Departed: 12-Nov-20 11:31 AM
Arrived: 12-Nov-20 12:43 PM
Distance/Time
Traveled:
164nm/1:11
Distance/Time
To Go:
Arrived

Flight Plot

Page will automatically refresh every two minutes.

Flight plan parsing failed; only flown route is shown


Map Options




Map Legend


Flown Route
Filed Route
Departure Airport
Arrival Airport
Navaid (VOR, NDB)
Fix

Horizontal Profiles

Position Reports

Time Latitude Longitude Heading Altitude Ground
Speed
12-Nov-20 11:29 32.271093 -108.406492 294 7028ft 109kts
12-Nov-20 11:30 32.280496 -108.440473 282 7027ft 109kts
12-Nov-20 11:31 32.284216 -108.476200 272 7027ft 110kts
12-Nov-20 11:32 32.284288 -108.512331 269 7027ft 110kts
12-Nov-20 11:33 32.284401 -108.548495 270 7026ft 110kts
12-Nov-20 11:34 32.284102 -108.584647 273 7025ft 110kts
12-Nov-20 11:35 32.283886 -108.620786 269 7027ft 110kts
12-Nov-20 11:36 32.283723 -108.656924 268 7029ft 110kts
12-Nov-20 11:37 32.283737 -108.693181 272 7028ft 110kts
12-Nov-20 11:38 32.283463 -108.729610 268 7028ft 110kts
12-Nov-20 11:39 32.283228 -108.765828 267 7024ft 110kts
12-Nov-20 11:40 32.283884 -108.802025 273 7021ft 109kts
12-Nov-20 11:41 32.284427 -108.837768 273 7015ft 109kts
12-Nov-20 11:42 32.284837 -108.873557 271 7012ft 109kts
12-Nov-20 11:43 32.285086 -108.909381 268 7011ft 109kts
12-Nov-20 11:44 32.285097 -108.945588 265 7008ft 110kts
12-Nov-20 11:45 32.284828 -108.981947 263 7006ft 110kts
12-Nov-20 11:46 32.288608 -109.017258 315 6989ft 120kts
12-Nov-20 11:47 32.303710 -109.050240 254 7010ft 109kts
12-Nov-20 11:48 32.295408 -109.086113 249 7001ft 110kts
12-Nov-20 11:49 32.286868 -109.121641 249 7001ft 111kts
12-Nov-20 11:50 32.275577 -109.155287 249 6999ft 111kts
12-Nov-20 11:51 32.270747 -109.191705 260 6999ft 113kts
12-Nov-20 11:52 32.269373 -109.230103 263 6972ft 116kts
12-Nov-20 11:53 32.265924 -109.271885 237 6466ft 127kts
12-Nov-20 11:54 32.248847 -109.306316 235 6475ft 114kts
12-Nov-20 11:55 32.233076 -109.339046 236 6466ft 113kts
12-Nov-20 11:56 32.217451 -109.371892 236 6466ft 113kts
12-Nov-20 11:57 32.201830 -109.404834 236 6466ft 112kts
12-Nov-20 11:58 32.186160 -109.437885 236 6466ft 112kts
12-Nov-20 12:00 32.170250 -109.471434 236 6465ft 112kts
12-Nov-20 12:01 32.154589 -109.504425 236 6466ft 113kts
12-Nov-20 12:02 32.138604 -109.538072 236 6467ft 113kts
12-Nov-20 12:03 32.122572 -109.571778 236 6469ft 113kts
12-Nov-20 12:04 32.106486 -109.605576 236 6471ft 114kts
12-Nov-20 12:05 32.090328 -109.639495 236 6475ft 115kts
12-Nov-20 12:06 32.074070 -109.673596 235 6479ft 117kts
12-Nov-20 12:07 32.057444 -109.708431 235 6484ft 118kts
12-Nov-20 12:08 32.040482 -109.743892 236 6488ft 123kts
12-Nov-20 12:09 32.034809 -109.784361 273 6490ft 128kts
12-Nov-20 12:10 32.038720 -109.827758 272 6491ft 129kts
12-Nov-20 12:11 32.042096 -109.871098 272 6492ft 129kts
12-Nov-20 12:12 32.045354 -109.914494 272 6493ft 129kts
12-Nov-20 12:13 32.039654 -109.956138 262 6493ft 128kts
12-Nov-20 12:14 32.036413 -109.999004 247 6494ft 126kts
12-Nov-20 12:15 32.022501 -110.037665 253 6492ft 126kts
12-Nov-20 12:16 32.017017 -110.079486 261 6493ft 126kts
12-Nov-20 12:17 32.014205 -110.119184 262 6492ft 113kts
12-Nov-20 12:17 32.012193 -110.150865 262 6496ft 121kts
12-Nov-20 12:19 32.007440 -110.199394 252 6494ft 126kts
12-Nov-20 12:19 31.999602 -110.233698 251 6494ft 127kts
12-Nov-20 12:21 31.991024 -110.281831 266 6562ft 126kts
12-Nov-20 12:21 31.993726 -110.317095 277 6562ft 128kts
12-Nov-20 12:22 32.000912 -110.359362 279 6563ft 129kts
12-Nov-20 12:23 32.008769 -110.401638 280 6560ft 129kts
12-Nov-20 12:24 32.016558 -110.443830 259 6551ft 126kts
12-Nov-20 12:25 32.009724 -110.485265 260 6541ft 126kts
12-Nov-20 12:26 32.006710 -110.527090 261 6533ft 125kts
12-Nov-20 12:27 32.003885 -110.568586 261 6524ft 123kts
12-Nov-20 12:28 32.000514 -110.614151 261 5744ft 145kts
12-Nov-20 12:29 31.996522 -110.662538 262 4523ft 132kts
12-Nov-20 12:30 31.995335 -110.699295 270 4497ft 98kts
12-Nov-20 12:31 31.997114 -110.734268 270 4267ft 94kts
12-Nov-20 12:32 31.998266 -110.764444 265 4271ft 87kts
12-Nov-20 12:33 31.981034 -110.783103 222 4365ft 85kts
12-Nov-20 12:34 31.964687 -110.803661 239 4476ft 86kts
12-Nov-20 12:35 31.952022 -110.827357 242 4601ft 85kts
12-Nov-20 12:36 31.967557 -110.847074 335 4505ft 99kts
12-Nov-20 12:37 31.992048 -110.858962 333 4854ft 93kts
12-Nov-20 12:38 32.019372 -110.869357 339 5201ft 107kts
12-Nov-20 12:39 32.050262 -110.886920 343 4887ft 131kts
12-Nov-20 12:40 32.080609 -110.898301 324 3884ft 82kts
12-Nov-20 12:41 32.096088 -110.915907 313 2972ft 85kts
12-Nov-20 12:42 32.107512 -110.929253 314 2628ft 39kts
12-Nov-20 12:43 32.111249 -110.932297 30 2621ft 0kts
12-Nov-20 12:44 32.114232 -110.934767 317 2613ft 29kts
12-Nov-20 12:45 32.121603 -110.943248 313 2586ft 41kts
12-Nov-20 12:46 32.126091 -110.945008 74 2572ft 0kts

Navigation Log

Ident Type
Flight plan parsing failed, navigation log unavailable